Terminal Aerodrome Forecast
Issued by NWS Hastings, NE

Home | Current Version | Previous Version | Text Only | Print | Product List | Glossary On
Versions: 1 2 3 4 5 6 7 8 9 10 11 12 13 14 15 16 17 18 19
000
FTUS45 KGID 051428 AAA
TAFEAR
TAF AMD
KEAR 051428Z 0514/0612 16014KT P6SM SCT250
     FM051600 17015G24KT P6SM SCT120 SCT250
     FM052200 17020G28KT P6SM SCT060 SCT250
     FM060100 16015G23KT P6SM BKN150
      AMD LTD TO CLD VIS AND WIND=

USA.gov is the U.S. government's official web portal to all federal, state and local government web resources and services.